Hauptseite
METAR-TAF:

METAR-TAF

Flughäfen :

Flughafen Comiso

Comiso, Italien

Breite: 36-59-30N, Länge: 14-36-25E, Höhe: 190 m

Beobachtung

Neuester Wetterbericht von vor 2 Stunden und 2 Minuten, um 21:50 UTC
Wind 4 kt aus Ost/Südost, variierte zwischen Nordost und Süd/Südost
Temperatur 15°C
Luftfeuchtigkeit 59%
Luftdruck 1016 hPa
Sichtweite 10 km oder mehr
Leicht bewölkt in der Höhe von 5000 ft

METAR: LICB 192150Z 11004KT 050V160 9999 FEW050 15/07 Q1016

Zeit: 00:52 (23:52 UTC)

Prognose

Neuester Wetterbericht von vor 3 Stunden und 52 Minuten, um 20:00 UTC
Gültige Prognose vom 19 um 21 UTC bis 20 um 06 UTC
Wind 5 kt aus unterschiedlichen Richtungen
Sichtweite 10 km oder mehr
Aufgelockert bewölkt in der Höhe von 3000 ft
Zeitweise
vom 20 um 00 UTC bis 20 um 06 UTC
Sichtweite: 4000 m
Regen

TAF: LICB 192000Z 1921/2006 VRB05KT 9999 SCT030 TEMPO 2000/2006 4000 RA

Wetterbeobachtungen und Prognosen von mehr als 4000 Flughäfen (METAR und TAF Bericht).

Die verfügbaren Stationen werden durch gelbe und rote Markierungen auf der Karte dargestellt.

Führen Sie die Maus auf sie, um den Namen der Station zu sehen.

Darauf klicken, um die Beobachtung von Wetterbeobachtungen und Prognosen zu sehen.

Um die Karte zu ändern : klicken Sie auf den grünen Tasten mit einem schwarzen Kreuz Zum Vergrößern, auf den grünen Button mit einem Gedankenstrich zu verkleinern, oder auf die grünen Pfeile für benachbarte Karten.


METAR-TAF: